AZU2442 SBGO-SBSV
Flight info
| Callsign | AZU2442 |
|---|---|
| Flight time | 1h 42m |
| Altitude | 39000 |
| Route | LODUV DCT UGTAK UZ19 DOTBI |
| Aircraft | A20N/M-SDE2E3FGHIRWXY/LB1 |
Departure
| Time | 2026-04-21 15:08 |
|---|---|
| Airport | Santa Genoveva International Airport (SBGO) |
Arrival
| Time | 2026-04-21 16:50 |
|---|---|
| Airport | Deputado Luiz Eduardo Magalhães International Airport (SBSV) |
| Time | Latitude | Longitude | Altitude | Speed | Heading |
|---|---|---|---|---|---|
| 2026-04-21 14:38 | -16.62974 | -49.21530 | 2459 ft | 0 kts | 63° |
| 2026-04-21 14:57 | -16.62977 | -49.21535 | 2477 ft | 2 kts | 63° |
| 2026-04-21 14:57 | -16.62983 | -49.21549 | 2477 ft | 2 kts | 63° |
| 2026-04-21 14:57 | -16.62990 | -49.21563 | 2477 ft | 2 kts | 63° |
| 2026-04-21 14:58 | -16.62995 | -49.21572 | 2477 ft | 0 kts | 63° |
| 2026-04-21 14:58 | -16.63003 | -49.21584 | 2477 ft | 2 kts | 21° |
| 2026-04-21 14:58 | -16.63019 | -49.21585 | 2477 ft | 2 kts | 339° |
| 2026-04-21 14:58 | -16.63025 | -49.21581 | 2477 ft | 1 kts | 319° |
| 2026-04-21 14:59 | -16.63028 | -49.21578 | 2477 ft | 0 kts | 325° |
| 2026-04-21 15:03 | -16.63027 | -49.21579 | 2477 ft | 1 kts | 325° |
| 2026-04-21 15:03 | -16.63003 | -49.21597 | 2477 ft | 6 kts | 325° |
| 2026-04-21 15:04 | -16.62949 | -49.21629 | 2477 ft | 10 kts | 323° |
| 2026-04-21 15:04 | -16.62925 | -49.21713 | 2477 ft | 14 kts | 257° |
| 2026-04-21 15:04 | -16.62950 | -49.21827 | 2477 ft | 17 kts | 258° |
| 2026-04-21 15:04 | -16.62977 | -49.21966 | 2477 ft | 20 kts | 258° |
| 2026-04-21 15:05 | -16.62986 | -49.22109 | 2477 ft | 20 kts | 282° |
| 2026-04-21 15:05 | -16.62855 | -49.22365 | 2477 ft | 20 kts | 303° |
| 2026-04-21 15:05 | -16.62788 | -49.22492 | 2477 ft | 20 kts | 299° |
| 2026-04-21 15:06 | -16.62716 | -49.22617 | 2477 ft | 20 kts | 303° |
| 2026-04-21 15:06 | -16.62645 | -49.22744 | 2477 ft | 20 kts | 300° |
| 2026-04-21 15:06 | -16.62579 | -49.22871 | 2476 ft | 20 kts | 287° |
| 2026-04-21 15:06 | -16.62658 | -49.22969 | 2476 ft | 19 kts | 206° |
| 2026-04-21 15:07 | -16.62734 | -49.22929 | 2476 ft | 0 kts | 118° |
| 2026-04-21 15:07 | -16.62734 | -49.22928 | 2476 ft | 0 kts | 118° |
| 2026-04-21 15:08 | -16.62779 | -49.22844 | 2476 ft | 53 kts | 119° |
| 2026-04-21 15:08 | -16.63147 | -49.22191 | 2477 ft | 150 kts | 120° |
| 2026-04-21 15:08 | -16.63780 | -49.21077 | 2823 ft | 197 kts | 118° |
| 2026-04-21 15:08 | -16.64490 | -49.19784 | 3729 ft | 216 kts | 118° |
| 2026-04-21 15:09 | -16.65221 | -49.18494 | 5140 ft | 210 kts | 119° |
| 2026-04-21 15:09 | -16.65912 | -49.17274 | 6454 ft | 191 kts | 120° |
| 2026-04-21 15:09 | -16.66503 | -49.16077 | 7074 ft | 192 kts | 104° |
| 2026-04-21 15:09 | -16.66442 | -49.14661 | 7417 ft | 206 kts | 64° |
| 2026-04-21 15:10 | -16.65554 | -49.13444 | 7845 ft | 219 kts | 48° |
| 2026-04-21 15:10 | -16.64658 | -49.12094 | 8253 ft | 237 kts | 66° |
| 2026-04-21 15:10 | -16.64068 | -49.10425 | 8717 ft | 255 kts | 72° |
| 2026-04-21 15:10 | -16.63540 | -49.08607 | 9211 ft | 273 kts | 72° |
| 2026-04-21 15:11 | -16.62935 | -49.06652 | 9750 ft | 290 kts | 72° |
| 2026-04-21 15:11 | -16.62293 | -49.04641 | 10477 ft | 298 kts | 72° |
| 2026-04-21 15:11 | -16.61624 | -49.02597 | 11270 ft | 302 kts | 71° |
| 2026-04-21 15:11 | -16.60934 | -49.00511 | 11924 ft | 311 kts | 71° |
| 2026-04-21 15:12 | -16.60211 | -48.98338 | 12375 ft | 327 kts | 71° |
| 2026-04-21 15:12 | -16.59457 | -48.96084 | 13045 ft | 335 kts | 71° |
| 2026-04-21 15:12 | -16.58690 | -48.93789 | 13817 ft | 339 kts | 71° |
| 2026-04-21 15:12 | -16.57907 | -48.91456 | 14586 ft | 343 kts | 72° |
| 2026-04-21 15:13 | -16.57121 | -48.89113 | 15319 ft | 347 kts | 72° |
| 2026-04-21 15:13 | -16.56324 | -48.86739 | 16037 ft | 351 kts | 72° |
| 2026-04-21 15:13 | -16.55506 | -48.84320 | 16752 ft | 355 kts | 71° |
| 2026-04-21 15:13 | -16.54285 | -48.82097 | 17402 ft | 363 kts | 50° |
| 2026-04-21 15:14 | -16.52277 | -48.80506 | 18072 ft | 369 kts | 27° |
| 2026-04-21 15:14 | -16.49793 | -48.79822 | 18704 ft | 375 kts | 4° |
| 2026-04-21 15:14 | -16.47178 | -48.80032 | 19330 ft | 379 kts | 352° |
| 2026-04-21 15:14 | -16.44540 | -48.80426 | 19915 ft | 384 kts | 352° |
| 2026-04-21 15:15 | -16.41887 | -48.80788 | 20481 ft | 389 kts | 356° |
| 2026-04-21 15:15 | -16.39170 | -48.80487 | 21036 ft | 392 kts | 20° |
| 2026-04-21 15:15 | -16.36836 | -48.79119 | 21632 ft | 390 kts | 43° |
| 2026-04-21 15:15 | -16.35141 | -48.76956 | 22243 ft | 387 kts | 62° |
| 2026-04-21 15:16 | -16.33795 | -48.74471 | 22832 ft | 391 kts | 63° |
| 2026-04-21 15:16 | -16.32461 | -48.71995 | 23378 ft | 395 kts | 63° |
| 2026-04-21 15:16 | -16.31092 | -48.69481 | 23926 ft | 399 kts | 63° |
| 2026-04-21 15:16 | -16.29711 | -48.66970 | 24462 ft | 403 kts | 63° |
| 2026-04-21 15:17 | -16.28308 | -48.64434 | 24996 ft | 407 kts | 63° |
| 2026-04-21 15:17 | -16.26889 | -48.61879 | 25538 ft | 410 kts | 62° |
| 2026-04-21 15:17 | -16.25451 | -48.59296 | 26080 ft | 412 kts | 62° |
| 2026-04-21 15:17 | -16.24015 | -48.56724 | 26608 ft | 415 kts | 62° |
| 2026-04-21 15:18 | -16.22563 | -48.54127 | 27119 ft | 417 kts | 62° |
| 2026-04-21 15:18 | -16.21092 | -48.51493 | 27621 ft | 419 kts | 61° |
| 2026-04-21 15:18 | -16.19635 | -48.48888 | 28147 ft | 422 kts | 61° |
| 2026-04-21 15:18 | -16.18161 | -48.46252 | 28678 ft | 424 kts | 61° |
| 2026-04-21 15:19 | -16.16664 | -48.43580 | 29207 ft | 426 kts | 60° |
| 2026-04-21 15:19 | -16.15184 | -48.40940 | 29724 ft | 428 kts | 60° |
| 2026-04-21 15:19 | -16.13685 | -48.38270 | 30242 ft | 430 kts | 60° |
| 2026-04-21 15:19 | -16.12174 | -48.35576 | 30757 ft | 431 kts | 60° |
| 2026-04-21 15:20 | -16.10657 | -48.32876 | 31267 ft | 434 kts | 60° |
| 2026-04-21 15:20 | -16.09143 | -48.30178 | 31782 ft | 436 kts | 59° |
| 2026-04-21 15:20 | -16.07603 | -48.27437 | 32297 ft | 438 kts | 59° |
| 2026-04-21 15:20 | -16.06069 | -48.24707 | 32801 ft | 440 kts | 59° |
| 2026-04-21 15:21 | -16.04512 | -48.21940 | 33286 ft | 442 kts | 59° |
| 2026-04-21 15:21 | -16.02956 | -48.19178 | 33750 ft | 445 kts | 59° |
| 2026-04-21 15:21 | -16.01399 | -48.16416 | 34247 ft | 446 kts | 59° |
| 2026-04-21 15:21 | -15.99851 | -48.13669 | 34824 ft | 443 kts | 59° |
| 2026-04-21 15:22 | -15.98292 | -48.10907 | 35390 ft | 441 kts | 59° |
| 2026-04-21 15:22 | -15.96743 | -48.08165 | 35882 ft | 440 kts | 59° |
| 2026-04-21 15:22 | -15.95206 | -48.05445 | 36323 ft | 441 kts | 59° |
| 2026-04-21 15:22 | -15.93643 | -48.02676 | 36751 ft | 442 kts | 59° |
| 2026-04-21 15:23 | -15.92090 | -47.99923 | 37163 ft | 443 kts | 59° |
| 2026-04-21 15:23 | -15.90532 | -47.97161 | 37570 ft | 443 kts | 59° |
| 2026-04-21 15:23 | -15.88986 | -47.94421 | 37966 ft | 444 kts | 59° |
| 2026-04-21 15:23 | -15.87416 | -47.91640 | 38359 ft | 444 kts | 59° |
| 2026-04-21 15:24 | -15.85850 | -47.88868 | 38709 ft | 444 kts | 59° |
| 2026-04-21 15:24 | -15.84282 | -47.86094 | 39093 ft | 445 kts | 60° |
| 2026-04-21 15:24 | -15.82700 | -47.83297 | 39245 ft | 450 kts | 60° |
| 2026-04-21 15:24 | -15.81117 | -47.80499 | 39283 ft | 453 kts | 60° |
| 2026-04-21 15:25 | -15.77935 | -47.74872 | 39231 ft | 454 kts | 60° |
| 2026-04-21 15:25 | -15.74727 | -47.69203 | 39225 ft | 453 kts | 60° |
| 2026-04-21 15:26 | -15.71547 | -47.63587 | 39128 ft | 451 kts | 60° |
| 2026-04-21 15:26 | -15.68356 | -47.57958 | 39100 ft | 451 kts | 60° |
| 2026-04-21 15:27 | -15.65185 | -47.52369 | 39126 ft | 451 kts | 60° |
| 2026-04-21 15:27 | -15.62003 | -47.46767 | 39137 ft | 450 kts | 60° |
| 2026-04-21 15:28 | -15.58802 | -47.41134 | 39148 ft | 450 kts | 60° |
| 2026-04-21 15:28 | -15.55610 | -47.35522 | 39147 ft | 450 kts | 60° |
| 2026-04-21 15:29 | -15.52446 | -47.29964 | 39131 ft | 450 kts | 60° |
| 2026-04-21 15:29 | -15.49253 | -47.24358 | 39117 ft | 450 kts | 60° |
| 2026-04-21 15:30 | -15.46086 | -47.18802 | 39104 ft | 449 kts | 60° |
| 2026-04-21 15:30 | -15.42909 | -47.13233 | 39096 ft | 449 kts | 60° |
| 2026-04-21 15:31 | -15.39717 | -47.07642 | 39090 ft | 449 kts | 60° |
| 2026-04-21 15:31 | -15.36544 | -47.02080 | 39083 ft | 448 kts | 60° |
| 2026-04-21 15:32 | -15.33384 | -46.96546 | 39076 ft | 448 kts | 60° |
| 2026-04-21 15:32 | -15.30194 | -46.90970 | 39070 ft | 448 kts | 60° |
| 2026-04-21 15:33 | -15.27018 | -46.85421 | 39065 ft | 447 kts | 60° |
| 2026-04-21 15:33 | -15.23862 | -46.79912 | 39060 ft | 447 kts | 60° |
| 2026-04-21 15:34 | -15.20679 | -46.74361 | 39060 ft | 446 kts | 60° |
| 2026-04-21 15:34 | -15.17517 | -46.68853 | 39060 ft | 446 kts | 60° |
| 2026-04-21 15:35 | -15.14358 | -46.63351 | 39059 ft | 446 kts | 60° |
| 2026-04-21 15:35 | -15.11191 | -46.57840 | 39056 ft | 446 kts | 60° |
| 2026-04-21 15:36 | -15.08020 | -46.52326 | 39051 ft | 445 kts | 60° |
| 2026-04-21 15:36 | -15.04862 | -46.46838 | 39047 ft | 445 kts | 60° |
| 2026-04-21 15:37 | -15.01702 | -46.41353 | 39047 ft | 445 kts | 60° |
| 2026-04-21 15:37 | -14.98526 | -46.35842 | 39048 ft | 445 kts | 60° |
| 2026-04-21 15:38 | -14.95363 | -46.30358 | 39048 ft | 445 kts | 60° |
| 2026-04-21 15:38 | -14.92286 | -46.24844 | 39046 ft | 444 kts | 63° |
| 2026-04-21 15:39 | -14.89751 | -46.19027 | 39045 ft | 443 kts | 70° |
| 2026-04-21 15:39 | -14.87816 | -46.13027 | 39050 ft | 442 kts | 73° |
| 2026-04-21 15:40 | -14.85983 | -46.06988 | 39057 ft | 442 kts | 73° |
| 2026-04-21 15:40 | -14.84137 | -46.00936 | 39065 ft | 445 kts | 73° |
| 2026-04-21 15:41 | -14.82244 | -45.94755 | 39068 ft | 458 kts | 73° |
| 2026-04-21 15:41 | -14.80307 | -45.88435 | 39063 ft | 464 kts | 73° |
| 2026-04-21 15:42 | -14.78358 | -45.82093 | 39053 ft | 464 kts | 73° |
| 2026-04-21 15:42 | -14.76411 | -45.75764 | 39047 ft | 464 kts | 74° |
| 2026-04-21 15:43 | -14.74459 | -45.69413 | 39046 ft | 464 kts | 74° |
| 2026-04-21 15:43 | -14.72504 | -45.63060 | 39047 ft | 464 kts | 74° |
| 2026-04-21 15:44 | -14.70546 | -45.56708 | 39049 ft | 464 kts | 74° |
| 2026-04-21 15:44 | -14.68595 | -45.50384 | 39050 ft | 464 kts | 74° |
| 2026-04-21 15:45 | -14.66633 | -45.44035 | 39068 ft | 464 kts | 74° |
| 2026-04-21 15:45 | -14.64679 | -45.37718 | 39105 ft | 464 kts | 74° |
| 2026-04-21 15:46 | -14.62712 | -45.31367 | 39148 ft | 465 kts | 73° |
| 2026-04-21 15:46 | -14.60744 | -45.25013 | 39179 ft | 465 kts | 74° |
| 2026-04-21 15:47 | -14.58776 | -45.18671 | 39196 ft | 465 kts | 74° |
| 2026-04-21 15:47 | -14.56814 | -45.12353 | 39202 ft | 465 kts | 74° |
| 2026-04-21 15:48 | -14.54837 | -45.05995 | 39200 ft | 465 kts | 74° |
| 2026-04-21 15:48 | -14.52868 | -44.99672 | 39201 ft | 465 kts | 74° |
| 2026-04-21 15:49 | -14.50883 | -44.93304 | 39195 ft | 465 kts | 74° |
| 2026-04-21 15:49 | -14.48915 | -44.86996 | 39185 ft | 465 kts | 74° |
| 2026-04-21 15:50 | -14.46928 | -44.80631 | 39173 ft | 466 kts | 74° |
| 2026-04-21 15:50 | -14.44945 | -44.74291 | 39161 ft | 466 kts | 74° |
| 2026-04-21 15:51 | -14.42951 | -44.67931 | 39157 ft | 466 kts | 74° |
| 2026-04-21 15:51 | -14.40969 | -44.61615 | 39157 ft | 466 kts | 74° |
| 2026-04-21 15:52 | -14.38967 | -44.55240 | 39160 ft | 466 kts | 74° |
| 2026-04-21 15:52 | -14.36967 | -44.48877 | 39160 ft | 466 kts | 74° |
| 2026-04-21 15:53 | -14.34971 | -44.42530 | 39157 ft | 467 kts | 75° |
| 2026-04-21 15:53 | -14.32980 | -44.36209 | 39151 ft | 467 kts | 75° |
| 2026-04-21 15:54 | -14.30971 | -44.29836 | 39142 ft | 467 kts | 74° |
| 2026-04-21 15:54 | -14.28969 | -44.23484 | 39133 ft | 467 kts | 75° |
| 2026-04-21 15:55 | -14.26965 | -44.17135 | 39126 ft | 467 kts | 75° |
| 2026-04-21 15:55 | -14.24958 | -44.10787 | 39122 ft | 467 kts | 75° |
| 2026-04-21 15:56 | -14.22947 | -44.04426 | 39121 ft | 467 kts | 75° |
| 2026-04-21 15:56 | -14.20940 | -43.98077 | 39122 ft | 467 kts | 74° |
| 2026-04-21 15:57 | -14.18926 | -43.91739 | 39121 ft | 467 kts | 74° |
| 2026-04-21 15:57 | -14.16912 | -43.85398 | 39119 ft | 467 kts | 75° |
| 2026-04-21 15:58 | -14.14884 | -43.79009 | 39113 ft | 467 kts | 75° |
| 2026-04-21 15:58 | -14.12879 | -43.72700 | 39104 ft | 467 kts | 75° |
| 2026-04-21 15:59 | -14.10862 | -43.66361 | 39098 ft | 467 kts | 75° |
| 2026-04-21 15:59 | -14.08839 | -43.60008 | 39096 ft | 467 kts | 75° |
| 2026-04-21 16:00 | -14.06818 | -43.53660 | 39096 ft | 467 kts | 75° |
| 2026-04-21 16:00 | -14.04793 | -43.47306 | 39097 ft | 467 kts | 75° |
| 2026-04-21 16:01 | -14.02770 | -43.40967 | 39097 ft | 467 kts | 75° |
| 2026-04-21 16:01 | -14.00740 | -43.34616 | 39098 ft | 467 kts | 74° |
| 2026-04-21 16:02 | -13.98716 | -43.28291 | 39097 ft | 467 kts | 74° |
| 2026-04-21 16:02 | -13.96691 | -43.21970 | 39098 ft | 467 kts | 74° |
| 2026-04-21 16:03 | -13.94653 | -43.15614 | 39105 ft | 467 kts | 74° |
| 2026-04-21 16:03 | -13.92626 | -43.09302 | 39111 ft | 466 kts | 74° |
| 2026-04-21 16:04 | -13.90597 | -43.02987 | 39116 ft | 466 kts | 74° |
| 2026-04-21 16:04 | -13.88567 | -42.96678 | 39123 ft | 465 kts | 74° |
| 2026-04-21 16:05 | -13.86527 | -42.90345 | 39137 ft | 465 kts | 74° |
| 2026-04-21 16:05 | -13.84507 | -42.84081 | 39153 ft | 465 kts | 74° |
| 2026-04-21 16:06 | -13.82477 | -42.77791 | 39173 ft | 464 kts | 74° |
| 2026-04-21 16:06 | -13.80434 | -42.71464 | 39191 ft | 464 kts | 74° |
| 2026-04-21 16:07 | -13.78409 | -42.65197 | 39200 ft | 464 kts | 74° |
| 2026-04-21 16:07 | -13.76379 | -42.58908 | 39204 ft | 464 kts | 74° |
| 2026-04-21 16:08 | -13.73326 | -42.49478 | 39203 ft | 464 kts | 74° |
| 2026-04-21 16:09 | -13.71294 | -42.43215 | 39193 ft | 463 kts | 74° |
| 2026-04-21 16:09 | -13.69254 | -42.36932 | 39176 ft | 463 kts | 74° |
| 2026-04-21 16:10 | -13.67217 | -42.30684 | 39160 ft | 463 kts | 74° |
| 2026-04-21 16:10 | -13.65179 | -42.24431 | 39143 ft | 463 kts | 74° |
| 2026-04-21 16:11 | -13.63141 | -42.18161 | 39143 ft | 463 kts | 74° |
| 2026-04-21 16:11 | -13.61103 | -42.11905 | 39156 ft | 463 kts | 74° |
| 2026-04-21 16:12 | -13.59404 | -42.06702 | 39177 ft | 463 kts | 74° |
| 2026-04-21 16:12 | -13.57018 | -41.99409 | 39215 ft | 463 kts | 74° |
| 2026-04-21 16:13 | -13.54976 | -41.93167 | 39221 ft | 463 kts | 74° |
| 2026-04-21 16:13 | -13.52929 | -41.86904 | 39196 ft | 463 kts | 74° |
| 2026-04-21 16:14 | -13.50876 | -41.80630 | 39157 ft | 463 kts | 74° |
| 2026-04-21 16:14 | -13.48832 | -41.74394 | 39121 ft | 463 kts | 74° |
| 2026-04-21 16:15 | -13.46775 | -41.68122 | 39127 ft | 464 kts | 74° |
| 2026-04-21 16:15 | -13.44715 | -41.61848 | 39161 ft | 464 kts | 73° |
| 2026-04-21 16:16 | -13.42653 | -41.55575 | 39206 ft | 464 kts | 73° |
| 2026-04-21 16:16 | -13.40601 | -41.49339 | 39165 ft | 464 kts | 73° |
| 2026-04-21 16:17 | -13.38532 | -41.43055 | 39143 ft | 465 kts | 73° |
| 2026-04-21 16:17 | -13.36460 | -41.36769 | 39160 ft | 465 kts | 73° |
| 2026-04-21 16:18 | -13.34382 | -41.30471 | 39187 ft | 465 kts | 73° |
| 2026-04-21 16:18 | -13.32300 | -41.24169 | 39202 ft | 466 kts | 73° |
| 2026-04-21 16:19 | -13.30233 | -41.17916 | 39209 ft | 466 kts | 73° |
| 2026-04-21 16:19 | -13.28143 | -41.11599 | 39175 ft | 466 kts | 73° |
| 2026-04-21 16:20 | -13.26066 | -41.05327 | 39127 ft | 467 kts | 73° |
| 2026-04-21 16:20 | -13.23977 | -40.99028 | 39093 ft | 467 kts | 73° |
| 2026-04-21 16:21 | -13.21893 | -40.92749 | 39072 ft | 467 kts | 72° |
| 2026-04-21 16:21 | -13.19798 | -40.86448 | 39058 ft | 467 kts | 72° |
| 2026-04-21 16:22 | -13.17696 | -40.80128 | 39050 ft | 468 kts | 72° |
| 2026-04-21 16:22 | -13.15605 | -40.73838 | 39042 ft | 468 kts | 73° |
| 2026-04-21 16:23 | -13.13499 | -40.67489 | 39047 ft | 468 kts | 72° |
| 2026-04-21 16:23 | -13.12470 | -40.64393 | 39048 ft | 455 kts | 72° |
| 2026-04-21 16:23 | -13.11457 | -40.61349 | 38740 ft | 450 kts | 72° |
| 2026-04-21 16:23 | -13.10452 | -40.58330 | 38020 ft | 454 kts | 72° |
| 2026-04-21 16:24 | -13.09425 | -40.55244 | 37318 ft | 454 kts | 72° |
| 2026-04-21 16:24 | -13.08418 | -40.52231 | 36713 ft | 451 kts | 72° |
| 2026-04-21 16:24 | -13.07399 | -40.49198 | 36078 ft | 449 kts | 72° |
| 2026-04-21 16:24 | -13.06387 | -40.46184 | 35380 ft | 448 kts | 72° |
| 2026-04-21 16:25 | -13.05383 | -40.43188 | 34493 ft | 449 kts | 72° |
| 2026-04-21 16:25 | -13.04376 | -40.40183 | 33704 ft | 446 kts | 72° |
| 2026-04-21 16:25 | -13.03372 | -40.37185 | 33030 ft | 441 kts | 72° |
| 2026-04-21 16:25 | -13.02390 | -40.34251 | 32433 ft | 433 kts | 72° |
| 2026-04-21 16:26 | -13.01413 | -40.31338 | 31886 ft | 431 kts | 72° |
| 2026-04-21 16:26 | -13.00442 | -40.28445 | 31296 ft | 430 kts | 72° |
| 2026-04-21 16:26 | -12.99471 | -40.25552 | 30837 ft | 427 kts | 72° |
| 2026-04-21 16:26 | -12.98515 | -40.22702 | 30410 ft | 425 kts | 72° |
| 2026-04-21 16:27 | -12.97554 | -40.19837 | 30000 ft | 423 kts | 72° |
| 2026-04-21 16:27 | -12.96610 | -40.17024 | 29551 ft | 420 kts | 72° |
| 2026-04-21 16:27 | -12.95661 | -40.14197 | 29068 ft | 417 kts | 72° |
| 2026-04-21 16:27 | -12.94721 | -40.11395 | 28582 ft | 414 kts | 72° |
| 2026-04-21 16:28 | -12.93800 | -40.08654 | 28113 ft | 410 kts | 72° |
| 2026-04-21 16:28 | -12.92879 | -40.05913 | 27629 ft | 406 kts | 72° |
| 2026-04-21 16:28 | -12.91957 | -40.03197 | 27138 ft | 403 kts | 73° |
| 2026-04-21 16:28 | -12.91038 | -40.00467 | 26636 ft | 400 kts | 73° |
| 2026-04-21 16:29 | -12.90442 | -39.98686 | 26297 ft | 399 kts | 73° |
| 2026-04-21 16:29 | -12.89266 | -39.95134 | 25613 ft | 395 kts | 72° |
| 2026-04-21 16:29 | -12.88376 | -39.92461 | 25096 ft | 394 kts | 72° |
| 2026-04-21 16:29 | -12.87499 | -39.89846 | 24586 ft | 392 kts | 72° |
| 2026-04-21 16:30 | -12.86620 | -39.87198 | 24057 ft | 391 kts | 73° |
| 2026-04-21 16:30 | -12.85994 | -39.84513 | 23516 ft | 389 kts | 81° |
| 2026-04-21 16:30 | -12.85714 | -39.81751 | 22973 ft | 388 kts | 88° |
| 2026-04-21 16:30 | -12.85699 | -39.78996 | 22434 ft | 388 kts | 91° |
| 2026-04-21 16:31 | -12.85742 | -39.76254 | 21921 ft | 386 kts | 91° |
| 2026-04-21 16:31 | -12.85790 | -39.73523 | 21444 ft | 384 kts | 91° |
| 2026-04-21 16:31 | -12.85833 | -39.70782 | 20984 ft | 380 kts | 91° |
| 2026-04-21 16:31 | -12.85869 | -39.68125 | 20548 ft | 377 kts | 91° |
| 2026-04-21 16:32 | -12.85901 | -39.65428 | 20129 ft | 374 kts | 91° |
| 2026-04-21 16:32 | -12.85930 | -39.62798 | 19740 ft | 370 kts | 91° |
| 2026-04-21 16:32 | -12.85956 | -39.60169 | 19361 ft | 367 kts | 91° |
| 2026-04-21 16:32 | -12.85982 | -39.57567 | 18991 ft | 364 kts | 91° |
| 2026-04-21 16:33 | -12.86007 | -39.55007 | 18626 ft | 361 kts | 91° |
| 2026-04-21 16:33 | -12.86032 | -39.52438 | 18247 ft | 359 kts | 91° |
| 2026-04-21 16:33 | -12.86056 | -39.49892 | 17862 ft | 356 kts | 90° |
| 2026-04-21 16:33 | -12.86076 | -39.47362 | 17476 ft | 352 kts | 90° |
| 2026-04-21 16:34 | -12.86095 | -39.44879 | 17095 ft | 350 kts | 90° |
| 2026-04-21 16:34 | -12.86115 | -39.42402 | 16713 ft | 347 kts | 90° |
| 2026-04-21 16:34 | -12.86135 | -39.39936 | 16330 ft | 344 kts | 91° |
| 2026-04-21 16:34 | -12.86159 | -39.37494 | 15949 ft | 341 kts | 91° |
| 2026-04-21 16:35 | -12.86181 | -39.35076 | 15570 ft | 339 kts | 91° |
| 2026-04-21 16:35 | -12.86202 | -39.32686 | 15198 ft | 336 kts | 90° |
| 2026-04-21 16:35 | -12.86223 | -39.30310 | 14829 ft | 334 kts | 90° |
| 2026-04-21 16:35 | -12.86244 | -39.27963 | 14464 ft | 331 kts | 90° |
| 2026-04-21 16:36 | -12.86264 | -39.25616 | 14096 ft | 329 kts | 90° |
| 2026-04-21 16:36 | -12.86284 | -39.23269 | 13723 ft | 326 kts | 90° |
| 2026-04-21 16:36 | -12.86304 | -39.20956 | 13353 ft | 324 kts | 90° |
| 2026-04-21 16:36 | -12.86323 | -39.18656 | 12983 ft | 322 kts | 90° |
| 2026-04-21 16:37 | -12.86342 | -39.16398 | 12620 ft | 319 kts | 90° |
| 2026-04-21 16:37 | -12.86361 | -39.14122 | 12256 ft | 317 kts | 90° |
| 2026-04-21 16:37 | -12.86379 | -39.11872 | 11895 ft | 315 kts | 90° |
| 2026-04-21 16:37 | -12.86395 | -39.09642 | 11537 ft | 312 kts | 90° |
| 2026-04-21 16:38 | -12.86411 | -39.07433 | 11182 ft | 310 kts | 90° |
| 2026-04-21 16:38 | -12.86427 | -39.05245 | 10829 ft | 308 kts | 90° |
| 2026-04-21 16:38 | -12.86444 | -39.03035 | 10472 ft | 306 kts | 90° |
| 2026-04-21 16:38 | -12.86459 | -39.00880 | 10158 ft | 301 kts | 91° |
| 2026-04-21 16:39 | -12.86475 | -38.98782 | 10065 ft | 288 kts | 91° |
| 2026-04-21 16:39 | -12.86491 | -38.96751 | 9922 ft | 283 kts | 91° |
| 2026-04-21 16:39 | -12.86510 | -38.94734 | 9584 ft | 282 kts | 91° |
| 2026-04-21 16:39 | -12.86512 | -38.92745 | 9257 ft | 279 kts | 91° |
| 2026-04-21 16:40 | -12.86530 | -38.90767 | 8947 ft | 275 kts | 93° |
| 2026-04-21 16:40 | -12.86709 | -38.88851 | 8623 ft | 272 kts | 102° |
| 2026-04-21 16:40 | -12.87211 | -38.86983 | 8310 ft | 269 kts | 109° |
| 2026-04-21 16:40 | -12.87837 | -38.85198 | 8008 ft | 266 kts | 110° |
| 2026-04-21 16:41 | -12.88248 | -38.84018 | 7793 ft | 265 kts | 110° |
| 2026-04-21 16:41 | -12.89069 | -38.81658 | 7382 ft | 261 kts | 111° |
| 2026-04-21 16:41 | -12.89675 | -38.79919 | 7071 ft | 259 kts | 111° |
| 2026-04-21 16:41 | -12.90297 | -38.78202 | 6761 ft | 257 kts | 109° |
| 2026-04-21 16:42 | -12.90898 | -38.76501 | 6448 ft | 255 kts | 109° |
| 2026-04-21 16:42 | -12.91486 | -38.74775 | 6140 ft | 253 kts | 110° |
| 2026-04-21 16:42 | -12.92066 | -38.73086 | 5836 ft | 251 kts | 110° |
| 2026-04-21 16:42 | -12.92671 | -38.71431 | 5525 ft | 250 kts | 108° |
| 2026-04-21 16:43 | -12.93241 | -38.69740 | 5219 ft | 248 kts | 109° |
| 2026-04-21 16:43 | -12.93805 | -38.68074 | 4909 ft | 247 kts | 111° |
| 2026-04-21 16:43 | -12.94387 | -38.66415 | 4606 ft | 246 kts | 110° |
| 2026-04-21 16:43 | -12.94966 | -38.64772 | 4292 ft | 245 kts | 110° |
| 2026-04-21 16:44 | -12.95520 | -38.63137 | 4038 ft | 240 kts | 111° |
| 2026-04-21 16:44 | -12.96061 | -38.61588 | 3995 ft | 225 kts | 110° |
| 2026-04-21 16:44 | -12.96350 | -38.60020 | 3980 ft | 224 kts | 92° |
| 2026-04-21 16:44 | -12.96155 | -38.58438 | 3745 ft | 226 kts | 82° |
| 2026-04-21 16:45 | -12.95841 | -38.56864 | 3518 ft | 223 kts | 79° |
| 2026-04-21 16:45 | -12.95506 | -38.55314 | 3311 ft | 223 kts | 81° |
| 2026-04-21 16:45 | -12.95182 | -38.53746 | 3121 ft | 223 kts | 80° |
| 2026-04-21 16:45 | -12.94856 | -38.52215 | 2942 ft | 222 kts | 83° |
| 2026-04-21 16:46 | -12.94545 | -38.50665 | 2761 ft | 217 kts | 82° |
| 2026-04-21 16:46 | -12.94264 | -38.49186 | 2702 ft | 205 kts | 80° |
| 2026-04-21 16:46 | -12.93979 | -38.47799 | 2774 ft | 190 kts | 81° |
| 2026-04-21 16:46 | -12.93719 | -38.46547 | 2565 ft | 173 kts | 83° |
| 2026-04-21 16:47 | -12.93477 | -38.45384 | 2330 ft | 159 kts | 82° |
| 2026-04-21 16:47 | -12.93270 | -38.44329 | 2118 ft | 143 kts | 84° |
| 2026-04-21 16:47 | -12.93074 | -38.43362 | 1911 ft | 137 kts | 85° |
| 2026-04-21 16:47 | -12.92895 | -38.42414 | 1728 ft | 137 kts | 84° |
| 2026-04-21 16:48 | -12.92707 | -38.41456 | 1551 ft | 136 kts | 83° |
| 2026-04-21 16:48 | -12.92514 | -38.40505 | 1377 ft | 136 kts | 83° |
| 2026-04-21 16:48 | -12.92322 | -38.39556 | 1204 ft | 136 kts | 83° |
| 2026-04-21 16:48 | -12.92131 | -38.38607 | 1031 ft | 135 kts | 83° |
| 2026-04-21 16:49 | -12.91941 | -38.37664 | 861 ft | 135 kts | 83° |
| 2026-04-21 16:49 | -12.91752 | -38.36725 | 687 ft | 135 kts | 82° |
| 2026-04-21 16:49 | -12.91559 | -38.35769 | 510 ft | 135 kts | 82° |
| 2026-04-21 16:49 | -12.91370 | -38.34830 | 334 ft | 135 kts | 82° |
| 2026-04-21 16:50 | -12.91181 | -38.33889 | 169 ft | 134 kts | 82° |
| 2026-04-21 16:50 | -12.91002 | -38.32970 | 48 ft | 124 kts | 82° |
| 2026-04-21 16:50 | -12.90857 | -38.32223 | 44 ft | 71 kts | 77° |
| 2026-04-21 16:50 | -12.90790 | -38.31914 | 48 ft | 36 kts | 77° |
| 2026-04-21 16:51 | -12.90804 | -38.31740 | 51 ft | 13 kts | 146° |
| 2026-04-21 16:51 | -12.90892 | -38.31710 | 51 ft | 13 kts | 208° |
| 2026-04-21 16:51 | -12.90930 | -38.31806 | 49 ft | 16 kts | 255° |
| 2026-04-21 16:51 | -12.90954 | -38.31933 | 45 ft | 19 kts | 258° |
| 2026-04-21 16:52 | -12.90985 | -38.32078 | 42 ft | 21 kts | 257° |
| 2026-04-21 16:52 | -12.91016 | -38.32234 | 41 ft | 23 kts | 259° |
| 2026-04-21 16:52 | -12.91048 | -38.32397 | 39 ft | 23 kts | 258° |
| 2026-04-21 16:52 | -12.91081 | -38.32566 | 38 ft | 24 kts | 258° |
| 2026-04-21 16:53 | -12.91114 | -38.32727 | 39 ft | 22 kts | 257° |
| 2026-04-21 16:53 | -12.91145 | -38.32875 | 39 ft | 20 kts | 259° |
| 2026-04-21 16:53 | -12.91173 | -38.33019 | 40 ft | 20 kts | 261° |
| 2026-04-21 16:53 | -12.91217 | -38.33123 | 42 ft | 12 kts | 187° |
| 2026-04-21 16:54 | -12.91273 | -38.33157 | 43 ft | 10 kts | 221° |
| 2026-04-21 16:54 | -12.91340 | -38.33172 | 42 ft | 9 kts | 237° |
| 2026-04-21 16:54 | -12.91358 | -38.33213 | 43 ft | 0 kts | 248° |